Time;durP1;ratioP1;P1;durP2;ratioP2;P2;SDS_P1;SDS_P2;PMS_P1;PMS_P2;Temp;Humidity;BMP_temperature;BMP_pressure;BME280_temperature;BME280_humidity;BME280_pressure;Samples;Min_cycle;Max_cycle;Signal;HPM_P1;HPM_P2
2023/10/11 00:00:35;;;;;;;11.27;5.70;;;15.90;99.90;;;;;;5112440;28;20032;-63
2023/10/11 00:03:09;;;;;;;8.35;5.53;;;15.90;99.90;;;;;;5112784;28;20405;-63
2023/10/11 00:05:41;;;;;;;8.15;5.85;;;15.90;99.90;;;;;;5110828;28;20100;-64
2023/10/11 00:08:18;;;;;;;10.60;6.50;;;15.90;99.90;;;;;;5110505;28;20080;-62
2023/10/11 00:10:53;;;;;;;11.63;6.13;;;15.90;99.90;;;;;;5112358;28;20043;-64
2023/10/11 00:13:20;;;;;;;13.15;6.15;;;15.90;99.90;;;;;;5112357;28;20047;-62
2023/10/11 00:15:48;;;;;;;10.18;6.00;;;15.90;99.90;;;;;;5111239;28;20048;-62
2023/10/11 00:18:26;;;;;;;12.80;6.88;;;15.80;99.90;;;;;;5111852;28;20123;-63
2023/10/11 00:20:57;;;;;;;16.80;7.22;;;15.80;99.90;;;;;;5110736;28;20055;-63
2023/10/11 00:23:25;;;;;;;10.73;6.78;;;15.80;99.90;;;;;;5113676;28;20040;-63
2023/10/11 00:25:58;;;;;;;12.75;7.30;;;15.80;99.90;;;;;;5113495;28;20140;-62
2023/10/11 00:28:26;;;;;;;14.90;7.50;;;15.80;99.90;;;;;;5094202;28;20039;-63
2023/10/11 00:30:57;;;;;;;10.82;7.13;;;15.80;99.90;;;;;;5111975;28;20036;-63
2023/10/11 00:33:22;;;;;;;16.20;8.55;;;15.80;99.90;;;;;;5111088;28;20044;-62
2023/10/11 00:35:50;;;;;;;14.82;7.55;;;15.80;99.90;;;;;;5113223;28;20038;-63
2023/10/11 00:38:26;;;;;;;11.75;7.55;;;15.80;99.90;;;;;;5090918;28;20031;-63
2023/10/11 00:41:07;;;;;;;14.90;8.10;;;15.70;99.90;;;;;;5111732;28;20061;-64
2023/10/11 00:43:38;;;;;;;15.32;8.23;;;15.80;99.90;;;;;;5109010;28;20090;-63
2023/10/11 00:46:09;;;;;;;14.25;8.68;;;15.70;99.90;;;;;;5111535;28;20040;-62
2023/10/11 00:48:51;;;;;;;14.88;8.10;;;15.70;99.90;;;;;;5111393;28;20035;-62
2023/10/11 00:51:18;;;;;;;16.48;9.50;;;15.70;99.90;;;;;;5110256;28;20089;-63
2023/10/11 00:53:45;;;;;;;15.02;8.85;;;15.70;99.90;;;;;;5111332;28;20078;-63
2023/10/11 00:56:10;;;;;;;17.83;9.40;;;15.70;99.90;;;;;;5111357;28;20497;-62
2023/10/11 00:58:38;;;;;;;19.25;9.25;;;15.70;99.90;;;;;;5112663;28;20039;-63
2023/10/11 01:01:04;;;;;;;18.50;10.40;;;15.70;99.90;;;;;;5110964;28;20500;-63
2023/10/11 01:03:34;;;;;;;18.40;10.25;;;15.70;99.90;;;;;;5112659;28;20043;-64
2023/10/11 01:06:00;;;;;;;18.60;10.20;;;15.70;99.90;;;;;;5111367;28;20047;-63
2023/10/11 01:08:38;;;;;;;19.92;10.98;;;15.70;99.90;;;;;;5111488;28;20494;-63
2023/10/11 01:11:07;;;;;;;17.58;10.38;;;15.70;99.90;;;;;;5110703;28;20509;-63
2023/10/11 01:13:33;;;;;;;20.55;11.35;;;15.70;99.90;;;;;;5111972;28;20501;-62
2023/10/11 01:16:05;;;;;;;22.35;11.05;;;15.70;99.90;;;;;;5112499;28;20119;-63
2023/10/11 01:18:31;;;;;;;20.02;11.35;;;15.70;99.90;;;;;;5110996;28;20059;-62
2023/10/11 01:20:58;;;;;;;20.55;11.85;;;15.80;99.90;;;;;;5110866;28;20070;-62
2023/10/11 01:23:25;;;;;;;18.17;11.65;;;15.80;99.90;;;;;;5112402;28;20047;-62
2023/10/11 01:25:52;;;;;;;21.15;11.02;;;15.70;99.90;;;;;;5108131;27;20051;-62
2023/10/11 01:28:18;;;;;;;17.40;11.23;;;15.80;99.90;;;;;;5111894;28;20043;-64
2023/10/11 01:30:44;;;;;;;19.73;12.25;;;15.80;99.90;;;;;;5126576;27;20088;-63
2023/10/11 01:33:11;;;;;;;20.95;11.40;;;15.80;99.90;;;;;;5108187;28;20123;-63
2023/10/11 01:35:38;;;;;;;25.27;12.77;;;15.80;99.90;;;;;;5111060;28;20861;-62
2023/10/11 01:38:05;;;;;;;25.10;13.40;;;15.70;99.90;;;;;;5110546;28;20070;-63
2023/10/11 01:40:33;;;;;;;20.40;11.80;;;15.70;99.90;;;;;;5108732;28;20093;-62
2023/10/11 01:42:59;;;;;;;20.90;12.70;;;15.80;99.90;;;;;;5109302;28;20036;-62
2023/10/11 01:45:25;;;;;;;21.85;13.27;;;15.80;99.90;;;;;;5109772;28;20513;-63
2023/10/11 01:47:51;;;;;;;23.02;12.07;;;15.70;99.90;;;;;;5092775;28;20056;-63
2023/10/11 01:50:17;;;;;;;21.90;12.80;;;15.80;99.90;;;;;;5111572;28;20036;-63
2023/10/11 01:52:47;;;;;;;20.15;12.38;;;15.70;99.90;;;;;;5110149;28;20124;-63
2023/10/11 01:55:14;;;;;;;23.42;12.73;;;15.70;99.90;;;;;;5110721;28;20482;-62
2023/10/11 01:57:45;;;;;;;17.67;11.65;;;15.80;99.90;;;;;;5110643;28;20109;-63
2023/10/11 02:00:15;;;;;;;24.98;12.63;;;15.70;99.90;;;;;;5104376;28;20128;-63
2023/10/11 02:02:47;;;;;;;21.70;12.80;;;15.70;99.90;;;;;;5083796;28;20081;-63
2023/10/11 02:05:14;;;;;;;24.38;13.00;;;15.70;99.90;;;;;;5085029;27;20113;-62
2023/10/11 02:07:39;;;;;;;21.88;13.18;;;15.70;99.90;;;;;;5097596;27;20050;-62
2023/10/11 02:10:12;;;;;;;23.48;12.50;;;15.70;99.90;;;;;;5096755;27;20040;-63
2023/10/11 02:12:47;;;;;;;24.92;12.55;;;15.70;99.90;;;;;;5100124;27;20043;-63
2023/10/11 02:15:21;;;;;;;24.00;13.10;;;15.60;99.90;;;;;;5094913;27;20659;-62
2023/10/11 02:17:56;;;;;;;23.58;12.60;;;15.60;99.90;;;;;;5081315;28;21688;-63
2023/10/11 02:20:22;;;;;;;19.92;12.65;;;15.60;99.90;;;;;;5098331;28;21543;-63
2023/10/11 02:22:55;;;;;;;25.10;13.02;;;15.60;99.90;;;;;;5097921;28;20359;-64
2023/10/11 02:25:24;;;;;;;22.90;12.48;;;15.60;99.90;;;;;;5112907;27;20039;-63
2023/10/11 02:27:54;;;;;;;20.85;12.27;;;15.50;99.90;;;;;;5097391;28;20058;-62
2023/10/11 02:30:22;;;;;;;24.88;12.55;;;15.50;99.90;;;;;;5096602;28;20046;-62
2023/10/11 02:32:58;;;;;;;21.08;11.13;;;15.50;99.90;;;;;;5098844;28;20047;-62
2023/10/11 02:35:26;;;;;;;23.45;11.98;;;15.40;99.90;;;;;;5095834;28;20528;-62
2023/10/11 02:37:55;;;;;;;20.77;12.48;;;15.50;99.90;;;;;;5110721;27;20036;-63
2023/10/11 02:40:24;;;;;;;22.60;13.25;;;15.40;99.90;;;;;;5099095;28;20069;-62
2023/10/11 02:42:56;;;;;;;24.00;12.65;;;15.40;99.90;;;;;;5098055;28;20062;-63
2023/10/11 02:45:25;;;;;;;19.42;12.02;;;15.40;99.90;;;;;;5096395;28;20040;-63
2023/10/11 02:47:59;;;;;;;22.38;12.35;;;15.40;99.90;;;;;;5098077;28;20047;-62
2023/10/11 02:50:36;;;;;;;22.05;12.43;;;15.40;99.90;;;;;;5098465;28;20054;-63
2023/10/11 02:53:21;;;;;;;24.85;11.85;;;15.40;99.90;;;;;;5099329;28;20040;-64
2023/10/11 02:55:57;;;;;;;22.77;12.80;;;15.40;99.90;;;;;;5095882;28;20039;-62
2023/10/11 02:58:29;;;;;;;26.52;13.13;;;15.40;99.90;;;;;;5094376;28;20048;-63
2023/10/11 03:01:02;;;;;;;22.10;11.95;;;15.40;99.90;;;;;;5098120;28;20110;-62
2023/10/11 03:03:28;;;;;;;22.70;11.70;;;15.50;99.90;;;;;;5097201;28;20386;-63
2023/10/11 03:05:57;;;;;;;24.73;11.95;;;15.40;99.90;;;;;;5097840;28;20052;-63
2023/10/11 03:08:26;;;;;;;21.77;12.07;;;15.40;99.90;;;;;;5099303;28;20047;-63
2023/10/11 03:10:58;;;;;;;22.55;12.02;;;15.40;99.90;;;;;;5097373;28;20070;-62
2023/10/11 03:13:29;;;;;;;21.45;11.23;;;15.40;99.90;;;;;;5101958;28;20138;-62
2023/10/11 03:15:59;;;;;;;19.75;10.88;;;15.40;99.90;;;;;;5093158;28;20118;-63
2023/10/11 03:18:29;;;;;;;20.60;11.13;;;15.40;99.90;;;;;;5120290;28;20047;-63
2023/10/11 03:21:09;;;;;;;18.02;10.48;;;15.40;99.90;;;;;;5114065;28;20478;-63
2023/10/11 03:23:47;;;;;;;19.25;11.52;;;15.40;99.90;;;;;;5093879;28;20046;-61
2023/10/11 03:26:19;;;;;;;19.08;10.85;;;15.30;99.90;;;;;;5113000;28;20386;-63
2023/10/11 03:28:56;;;;;;;19.23;9.80;;;15.30;99.90;;;;;;5130554;28;20397;-63
2023/10/11 03:31:32;;;;;;;25.63;11.40;;;15.30;99.90;;;;;;5111447;28;20055;-61
2023/10/11 03:33:59;;;;;;;19.58;10.48;;;15.30;99.90;;;;;;5112491;28;20050;-62
2023/10/11 03:36:30;;;;;;;22.20;11.90;;;15.30;99.90;;;;;;5110247;28;20469;-62
2023/10/11 03:38:57;;;;;;;18.90;10.70;;;15.30;99.90;;;;;;5101952;28;20112;-63
2023/10/11 03:41:29;;;;;;;24.00;11.27;;;15.30;99.90;;;;;;5102954;28;20135;-62
2023/10/11 03:44:02;;;;;;;19.40;10.05;;;15.30;99.90;;;;;;5103900;28;20431;-61
2023/10/11 03:46:29;;;;;;;16.10;9.95;;;15.30;99.90;;;;;;5099840;28;20043;-62
2023/10/11 03:49:14;;;;;;;20.40;11.45;;;15.30;99.90;;;;;;5111151;28;20035;-63
2023/10/11 03:51:43;;;;;;;22.65;11.43;;;15.30;99.90;;;;;;5102334;28;20043;-62
2023/10/11 03:54:13;;;;;;;22.40;11.70;;;15.30;99.90;;;;;;5101571;28;20075;-62
2023/10/11 03:56:45;;;;;;;24.00;11.32;;;15.30;99.90;;;;;;5083316;28;20047;-61
2023/10/11 03:59:12;;;;;;;;;;;15.30;99.90;;;;;;5103614;28;20046;-62
2023/10/11 04:01:38;;;;;;;20.48;10.52;;;15.40;99.90;;;;;;5101970;28;20372;-63
2023/10/11 04:04:05;;;;;;;18.75;11.32;;;15.40;99.90;;;;;;5100411;28;20043;-62
2023/10/11 04:06:33;;;;;;;21.38;11.45;;;15.40;99.90;;;;;;5119576;28;20039;-63
2023/10/11 04:09:02;;;;;;;19.08;10.90;;;15.40;99.90;;;;;;5103368;27;20238;-63
2023/10/11 04:11:54;;;;;;;20.60;10.40;;;15.50;99.90;;;;;;5119126;27;20042;-63
2023/10/11 04:14:24;;;;;;;21.40;10.93;;;15.50;99.90;;;;;;5105031;27;20142;-63
2023/10/11 04:16:53;;;;;;;22.15;11.07;;;15.50;99.90;;;;;;5102248;27;20395;-63
2023/10/11 04:19:21;;;;;;;19.90;10.60;;;15.50;99.90;;;;;;5102857;27;20078;-62
2023/10/11 04:24:19;;;;;;;21.00;10.32;;;15.50;99.90;;;;;;5103369;27;20092;-63
2023/10/11 04:26:53;;;;;;;21.38;10.93;;;15.60;99.90;;;;;;5123060;27;20023;-63
2023/10/11 04:29:23;;;;;;;24.08;11.52;;;15.60;99.90;;;;;;5102694;27;20073;-63
2023/10/11 04:34:32;;;;;;;22.95;11.20;;;15.60;99.90;;;;;;5104534;27;20133;-63
2023/10/11 04:37:06;;;;;;;18.58;11.52;;;15.50;99.90;;;;;;5121016;27;20040;-64
2023/10/11 04:39:43;;;;;;;20.10;11.23;;;15.60;99.90;;;;;;5121302;27;20043;-62
2023/10/11 04:42:11;;;;;;;17.48;11.10;;;15.50;99.90;;;;;;5123579;27;20042;-63
2023/10/11 04:44:47;;;;;;;23.67;11.85;;;15.60;99.90;;;;;;5120225;27;20035;-62
2023/10/11 04:47:12;;;;;;;26.10;12.13;;;15.50;99.90;;;;;;5103759;27;20569;-63
2023/10/11 04:49:38;;;;;;;21.90;11.50;;;15.50;99.90;;;;;;5104741;27;20069;-63
2023/10/11 04:52:13;;;;;;;21.48;11.15;;;15.60;99.90;;;;;;5101608;27;20506;-63
2023/10/11 04:54:53;;;;;;;23.75;10.90;;;15.60;99.90;;;;;;5122209;27;20027;-63
2023/10/11 04:57:21;;;;;;;27.77;12.32;;;15.50;99.90;;;;;;5102791;27;20043;-63
2023/10/11 04:59:47;;;;;;;25.08;11.90;;;15.50;99.90;;;;;;5101958;27;20051;-63
2023/10/11 05:02:28;;;;;;;24.90;12.32;;;15.60;99.90;;;;;;5118351;27;20027;-63
2023/10/11 05:04:57;;;;;;;21.38;12.05;;;15.60;99.90;;;;;;5104461;27;20051;-63
2023/10/11 05:07:22;;;;;;;24.50;12.38;;;15.50;99.90;;;;;;5121026;27;20509;-61
2023/10/11 05:12:57;;;;;;;19.33;11.98;;;15.50;99.90;;;;;;5045788;28;20048;-62
2023/10/11 05:15:29;;;;;;;27.30;12.50;;;15.50;99.90;;;;;;5030830;28;20604;-63
2023/10/11 05:18:06;;;;;;;27.27;12.30;;;15.60;99.90;;;;;;5048346;28;20051;-62
2023/10/11 05:21:26;;;;;;;25.42;12.45;;;15.60;99.90;;;;;;5032329;28;20509;-62
2023/10/11 05:23:18;;;;;;;27.58;12.70;;;15.60;99.90;;;;;;5041842;28;20111;-63
2023/10/11 05:25:58;;;;;;;26.30;12.73;;;15.60;99.90;;;;;;5037309;28;20495;-63
2023/10/11 05:28:27;;;;;;;23.30;12.35;;;15.60;99.90;;;;;;5048976;28;20106;-63
2023/10/11 05:36:40;;;;;;;23.85;12.80;;;15.60;99.90;;;;;;5047726;28;20071;-62
2023/10/11 05:52:48;;;;;;;27.35;13.98;;;15.50;99.90;;;;;;5110690;27;20050;-63
2023/10/11 05:55:16;;;;;;;27.88;13.40;;;15.50;99.90;;;;;;5111406;27;20031;-63
2023/10/11 05:57:44;;;;;;;26.90;14.77;;;15.50;99.90;;;;;;5131828;27;20039;-63
2023/10/11 06:00:18;;;;;;;29.58;14.32;;;15.40;99.90;;;;;;5113345;27;20035;-63
2023/10/11 06:02:43;;;;;;;28.50;14.43;;;15.40;99.90;;;;;;5113068;27;20043;-63
2023/10/11 06:05:11;;;;;;;24.33;13.57;;;15.40;99.90;;;;;;5131803;27;20042;-64
2023/10/11 06:07:37;;;;;;;27.02;13.50;;;15.40;99.90;;;;;;5094641;27;20043;-64
2023/10/11 06:10:07;;;;;;;28.42;14.70;;;15.40;99.90;;;;;;5131741;27;20461;-63
2023/10/11 06:12:33;;;;;;;24.55;14.27;;;15.40;99.90;;;;;;5113211;27;20387;-62
2023/10/11 06:15:15;;;;;;;26.73;14.38;;;15.40;99.90;;;;;;5112875;27;20118;-63
2023/10/11 06:17:48;;;;;;;27.45;14.68;;;15.50;99.90;;;;;;5104871;27;20046;-64
2023/10/11 06:20:27;;;;;;;25.90;13.77;;;15.50;99.90;;;;;;5119699;27;20047;-62
2023/10/11 06:22:56;;;;;;;27.00;14.50;;;15.50;99.90;;;;;;5119021;27;20047;-64
2023/10/11 06:25:49;;;;;;;27.08;14.93;;;15.40;99.90;;;;;;5100106;27;20046;-63
2023/10/11 06:28:16;;;;;;;27.88;14.93;;;15.50;99.90;;;;;;5101040;27;20524;-63
2023/10/11 06:30:46;;;;;;;22.10;14.55;;;15.50;99.90;;;;;;5116909;27;20594;-64
2023/10/11 06:33:13;;;;;;;31.75;14.90;;;15.50;99.90;;;;;;5098376;27;20043;-63
2023/10/11 06:35:44;;;;;;;26.90;15.52;;;15.50;99.90;;;;;;5100999;27;20490;-63
2023/10/11 06:38:13;;;;;;;25.38;14.85;;;15.50;99.90;;;;;;5103117;27;20074;-63
2023/10/11 06:40:39;;;;;;;29.00;15.23;;;15.60;99.90;;;;;;5117356;27;20477;-62
2023/10/11 06:43:12;;;;;;;27.38;15.38;;;15.60;99.90;;;;;;5099489;27;20485;-63
2023/10/11 06:45:40;;;;;;;29.73;15.60;;;15.60;99.90;;;;;;5118906;27;20105;-62
2023/10/11 06:48:09;;;;;;;27.15;15.57;;;15.60;99.90;;;;;;5101407;27;20133;-64
2023/10/11 06:50:38;;;;;;;31.65;14.95;;;15.60;99.90;;;;;;5117232;27;20039;-63
2023/10/11 06:53:08;;;;;;;30.73;15.20;;;15.70;99.90;;;;;;5128265;27;20117;-64
2023/10/11 06:55:35;;;;;;;28.13;15.70;;;15.70;99.90;;;;;;5113321;28;20493;-61
2023/10/11 06:58:25;;;;;;;28.98;14.80;;;15.70;99.90;;;;;;5131221;27;20039;-63
2023/10/11 07:00:49;;;;;;;29.67;15.85;;;15.70;99.90;;;;;;5110472;27;20120;-62
2023/10/11 07:03:26;;;;;;;29.10;16.08;;;15.70;99.90;;;;;;5113190;27;20497;-63
2023/10/11 07:06:00;;;;;;;29.60;14.90;;;15.70;99.90;;;;;;5112500;28;20495;-63
2023/10/11 07:08:34;;;;;;;26.52;14.98;;;15.70;99.90;;;;;;5131759;27;20076;-62
2023/10/11 07:11:03;;;;;;;27.95;15.60;;;15.70;99.90;;;;;;5090382;28;20039;-62
2023/10/11 07:16:19;;;;;;;29.77;16.42;;;15.70;99.90;;;;;;5112358;28;20050;-63
2023/10/11 07:18:45;;;;;;;31.08;16.33;;;15.70;99.90;;;;;;5130585;28;20417;-63
2023/10/11 07:21:13;;;;;;;31.13;15.77;;;15.70;99.90;;;;;;5129293;28;20047;-62
2023/10/11 07:26:25;;;;;;;34.45;16.48;;;15.70;99.90;;;;;;5112474;28;20478;-62
2023/10/11 07:28:52;;;;;;;31.48;16.60;;;15.70;99.90;;;;;;5112353;28;20389;-62
2023/10/11 07:31:31;;;;;;;34.03;17.08;;;15.80;99.90;;;;;;5110369;28;20047;-62
2023/10/11 07:33:57;;;;;;;33.53;17.65;;;15.80;99.90;;;;;;5110011;28;20051;-62
2023/10/11 07:36:23;;;;;;;27.85;15.93;;;15.80;99.90;;;;;;5131016;28;20035;-62
2023/10/11 07:39:00;;;;;;;31.58;17.08;;;15.80;99.90;;;;;;5112462;28;20038;-62
2023/10/11 07:41:30;;;;;;;27.65;16.27;;;15.90;99.90;;;;;;5112385;27;20485;-61
2023/10/11 07:44:01;;;;;;;33.80;18.15;;;15.90;99.90;;;;;;5097526;27;20122;-61
2023/10/11 07:46:30;;;;;;;36.35;17.70;;;15.90;99.90;;;;;;5134817;27;20052;-62
2023/10/11 07:49:01;;;;;;;34.88;17.88;;;15.90;99.90;;;;;;5134767;27;20034;-62
2023/10/11 07:51:29;;;;;;;36.33;17.98;;;15.90;99.90;;;;;;5134773;27;20397;-62
2023/10/11 07:53:55;;;;;;;28.48;16.60;;;16.00;99.90;;;;;;5133473;27;20035;-63
2023/10/11 07:56:20;;;;;;;36.22;18.27;;;16.00;99.90;;;;;;5133375;27;20099;-62
2023/10/11 07:58:47;;;;;;;33.88;18.27;;;16.00;99.90;;;;;;5134402;27;20038;-62
2023/10/11 08:01:39;;;;;;;36.03;19.60;;;16.00;99.90;;;;;;5135120;27;20493;-63
2023/10/11 08:04:08;;;;;;;35.78;18.58;;;16.00;99.90;;;;;;5113519;27;20047;-62
2023/10/11 08:06:39;;;;;;;36.15;17.65;;;16.10;99.90;;;;;;5114380;27;20053;-62
2023/10/11 08:09:06;;;;;;;39.17;18.52;;;16.10;99.90;;;;;;5115682;27;20050;-62
2023/10/11 08:11:45;;;;;;;37.88;18.33;;;16.10;99.90;;;;;;5134283;27;20046;-62
2023/10/11 08:14:15;;;;;;;40.30;19.00;;;16.10;99.90;;;;;;5132816;27;20047;-62
2023/10/11 08:16:47;;;;;;;36.28;19.50;;;16.20;99.90;;;;;;5115235;27;20047;-62
2023/10/11 08:19:13;;;;;;;33.92;18.63;;;16.20;99.90;;;;;;5131154;27;20047;-62
2023/10/11 08:21:39;;;;;;;36.83;19.13;;;16.20;99.90;;;;;;5115475;27;20039;-61
2023/10/11 08:24:15;;;;;;;44.65;19.00;;;16.20;99.90;;;;;;5115360;27;20057;-62
2023/10/11 08:26:42;;;;;;;38.15;18.95;;;16.20;99.90;;;;;;5113231;27;20070;-63
2023/10/11 08:29:29;;;;;;;40.33;19.10;;;16.30;99.90;;;;;;5115853;27;20508;-62
2023/10/11 08:31:58;;;;;;;36.63;18.65;;;16.30;99.90;;;;;;5116125;27;20050;-62
2023/10/11 08:34:25;;;;;;;36.58;18.85;;;16.30;99.90;;;;;;5115657;27;20140;-62
2023/10/11 08:36:55;;;;;;;36.65;19.92;;;16.30;99.90;;;;;;5134059;27;20031;-62
2023/10/11 08:42:12;;;;;;;31.75;18.05;;;16.30;99.90;;;;;;5133637;27;20035;-62
2023/10/11 08:44:45;;;;;;;41.78;20.10;;;16.30;99.90;;;;;;5115675;27;20049;-62
2023/10/11 08:47:16;;;;;;;37.67;18.85;;;16.30;99.90;;;;;;5115779;27;20413;-63
2023/10/11 08:49:51;;;;;;;33.00;18.23;;;16.30;99.90;;;;;;5133865;27;20027;-62
2023/10/11 08:52:25;;;;;;;38.80;17.80;;;16.40;99.90;;;;;;5115274;27;20035;-62
2023/10/11 08:54:51;;;;;;;43.25;19.02;;;16.40;99.90;;;;;;5133070;27;20035;-63
2023/10/11 08:57:25;;;;;;;37.33;19.58;;;16.40;99.90;;;;;;5114704;27;20043;-62
2023/10/11 08:59:58;;;;;;;40.45;20.42;;;16.40;99.90;;;;;;5115346;27;20049;-63
2023/10/11 09:02:26;;;;;;;42.22;20.17;;;16.40;99.90;;;;;;5115129;27;20546;-63
2023/10/11 09:04:56;;;;;;;37.90;19.30;;;16.40;99.90;;;;;;5114898;27;20090;-64
2023/10/11 09:07:38;;;;;;;41.97;18.77;;;16.40;99.90;;;;;;5114916;27;20035;-62
2023/10/11 09:10:27;;;;;;;34.63;18.45;;;16.40;99.90;;;;;;5114992;27;20066;-63
2023/10/11 09:12:57;;;;;;;38.17;17.52;;;16.50;99.90;;;;;;5114894;27;20046;-62
2023/10/11 09:15:40;;;;;;;38.15;19.75;;;16.50;99.90;;;;;;5114705;27;20608;-62
2023/10/11 09:18:17;;;;;;;38.15;18.00;;;16.60;99.90;;;;;;5133074;27;20039;-62
2023/10/11 09:21:08;;;;;;;32.00;17.67;;;16.60;99.90;;;;;;5114896;27;20103;-62
2023/10/11 09:23:47;;;;;;;31.90;17.02;;;16.60;99.90;;;;;;5114789;27;20039;-61
2023/10/11 09:26:37;;;;;;;30.95;17.23;;;16.60;99.90;;;;;;5114069;27;20047;-61
2023/10/11 09:29:04;;;;;;;41.67;17.73;;;16.60;99.90;;;;;;5128983;27;20540;-63
2023/10/11 09:31:32;;;;;;;31.90;17.65;;;16.60;99.90;;;;;;5133323;27;20110;-60
2023/10/11 09:34:07;;;;;;;33.30;17.13;;;16.60;99.90;;;;;;5114569;27;20035;-61
2023/10/11 09:36:34;;;;;;;30.85;16.35;;;16.60;99.90;;;;;;5114599;27;20050;-63
2023/10/11 09:39:02;;;;;;;27.00;15.32;;;16.60;99.90;;;;;;5114217;27;20038;-61
2023/10/11 09:41:39;;;;;;;32.05;15.13;;;16.60;99.90;;;;;;5114360;27;20035;-61
2023/10/11 09:44:12;;;;;;;30.85;15.15;;;16.70;99.90;;;;;;5132495;27;20062;-62
2023/10/11 09:46:38;;;;;;;26.95;14.32;;;16.60;99.90;;;;;;5096895;27;20035;-62
2023/10/11 09:49:12;;;;;;;28.23;13.93;;;16.70;99.90;;;;;;5110649;27;20149;-63
2023/10/11 09:51:46;;;;;;;24.48;12.40;;;16.70;99.90;;;;;;5114153;27;20374;-61
2023/10/11 09:54:13;;;;;;;24.58;11.65;;;16.70;99.90;;;;;;5113101;27;20039;-63
2023/10/11 09:56:48;;;;;;;24.55;11.10;;;16.70;99.90;;;;;;5130982;27;20050;-62
2023/10/11 09:59:19;;;;;;;14.63;7.82;;;16.70;99.90;;;;;;5111281;27;20124;-63
2023/10/11 10:02:09;;;;;;;16.02;7.90;;;16.80;99.90;;;;;;5113265;27;20615;-62
2023/10/11 10:04:50;;;;;;;15.15;6.78;;;16.90;99.90;;;;;;5131102;27;20039;-62
2023/10/11 10:07:42;;;;;;;15.52;6.93;;;17.10;99.90;;;;;;5128031;27;20080;-62
2023/10/11 10:10:13;;;;;;;15.85;6.80;;;17.20;99.90;;;;;;5112926;27;20039;-62
2023/10/11 10:12:55;;;;;;;12.98;6.78;;;17.40;99.90;;;;;;5113550;27;20071;-62
2023/10/11 10:15:26;;;;;;;14.82;6.55;;;17.50;99.90;;;;;;5132114;27;20035;-61
2023/10/11 10:18:01;;;;;;;14.40;6.33;;;17.50;99.90;;;;;;5112323;27;20055;-61
2023/10/11 10:20:42;;;;;;;12.63;6.18;;;17.60;99.90;;;;;;5113644;27;20443;-62
2023/10/11 10:23:14;;;;;;;13.65;6.13;;;17.60;99.90;;;;;;5132040;27;20062;-61
2023/10/11 10:25:50;;;;;;;11.23;5.50;;;17.60;99.90;;;;;;5113040;27;20105;-63
2023/10/11 10:28:39;;;;;;;11.80;5.45;;;17.60;99.90;;;;;;5113398;27;20038;-62
2023/10/11 10:31:04;;;;;;;8.90;5.40;;;17.70;99.90;;;;;;5110112;27;20089;-62
2023/10/11 10:33:35;;;;;;;12.50;5.45;;;17.80;99.90;;;;;;5113478;27;20031;-62
2023/10/11 10:36:19;;;;;;;12.05;5.30;;;17.80;99.90;;;;;;5096378;27;20039;-63
2023/10/11 10:39:00;;;;;;;12.55;4.75;;;17.80;99.90;;;;;;5113147;27;20046;-63
2023/10/11 10:41:33;;;;;;;10.10;4.47;;;17.80;99.90;;;;;;5094682;27;20039;-63
2023/10/11 10:44:08;;;;;;;7.18;4.13;;;17.80;99.90;;;;;;5112124;27;20047;-63
2023/10/11 10:46:49;;;;;;;7.70;4.10;;;17.90;99.90;;;;;;5113167;27;20043;-64
2023/10/11 10:49:19;;;;;;;7.35;4.10;;;17.90;99.90;;;;;;5131281;27;20039;-62
2023/10/11 10:51:48;;;;;;;9.07;4.20;;;18.20;99.90;;;;;;5131376;27;20038;-62
2023/10/11 10:54:17;;;;;;;9.80;4.97;;;18.40;99.90;;;;;;5129887;27;20152;-63
2023/10/11 10:56:47;;;;;;;9.68;4.15;;;18.70;99.90;;;;;;5131481;27;20091;-63
2023/10/11 10:59:15;;;;;;;8.38;4.10;;;19.10;99.90;;;;;;5112900;28;20404;-63
2023/10/11 11:01:44;;;;;;;10.73;4.30;;;19.30;99.90;;;;;;5112950;27;20046;-62
2023/10/11 11:04:15;;;;;;;8.52;4.00;;;19.40;99.90;;;;;;5110529;28;20092;-61
2023/10/11 11:06:47;;;;;;;9.48;4.40;;;19.40;99.90;;;;;;5112764;27;20511;-61
2023/10/11 11:09:18;;;;;;;11.93;4.40;;;19.40;99.90;;;;;;5130978;27;20486;-63
2023/10/11 11:11:46;;;;;;;12.48;4.50;;;19.40;99.90;;;;;;5113241;28;20505;-62
2023/10/11 11:14:13;;;;;;;7.97;4.07;;;19.20;99.90;;;;;;5111502;28;20114;-63
2023/10/11 11:16:41;;;;;;;9.45;4.38;;;19.10;99.90;;;;;;5133338;27;21563;-62
2023/10/11 11:19:18;;;;;;;8.70;4.22;;;19.00;99.90;;;;;;5119288;27;20463;-62
2023/10/11 11:21:44;;;;;;;7.03;4.15;;;19.00;99.90;;;;;;5137668;27;20038;-62
2023/10/11 11:24:27;;;;;;;8.55;3.90;;;19.10;99.90;;;;;;5118052;27;20146;-61
2023/10/11 11:26:54;;;;;;;7.20;3.80;;;19.20;99.90;;;;;;5119598;27;20113;-62
2023/10/11 11:29:33;;;;;;;8.77;4.50;;;19.20;99.90;;;;;;5119388;27;20494;-61
2023/10/11 11:32:14;;;;;;;10.23;4.07;;;19.10;99.90;;;;;;5137990;27;20116;-63
2023/10/11 11:35:00;;;;;;;8.13;3.63;;;18.90;99.90;;;;;;5137080;27;20387;-62
2023/10/11 11:37:29;;;;;;;8.30;3.75;;;18.80;99.90;;;;;;5114319;27;20072;-63
2023/10/11 11:40:17;;;;;;;10.20;3.88;;;18.90;99.90;;;;;;5119255;27;20035;-62
2023/10/11 11:42:47;;;;;;;10.10;3.95;;;18.80;99.90;;;;;;5137244;27;20088;-62
2023/10/11 11:45:14;;;;;;;8.77;4.00;;;18.80;99.90;;;;;;5118498;27;20046;-62
2023/10/11 11:47:53;;;;;;;9.20;4.28;;;18.80;99.90;;;;;;5136495;27;20039;-61
2023/10/11 11:50:20;;;;;;;10.90;3.88;;;18.70;99.90;;;;;;5119179;27;20054;-62
2023/10/11 11:52:46;;;;;;;8.63;3.85;;;18.70;99.90;;;;;;5119215;27;20501;-63
2023/10/11 11:55:11;;;;;;;10.30;4.20;;;18.70;99.90;;;;;;5119064;27;20031;-63
2023/10/11 11:57:37;;;;;;;9.63;3.72;;;18.80;99.90;;;;;;5116169;27;20039;-63
2023/10/11 12:00:20;;;;;;;9.40;3.42;;;18.90;99.90;;;;;;5137698;27;20526;-62
2023/10/11 12:02:46;;;;;;;7.03;3.97;;;18.90;99.90;;;;;;5118835;27;20058;-61
2023/10/11 12:05:13;;;;;;;7.82;4.00;;;19.00;99.90;;;;;;5119034;27;20039;-63
2023/10/11 12:07:38;;;;;;;9.98;4.15;;;19.00;99.90;;;;;;5136540;27;20043;-63
2023/10/11 12:10:23;;;;;;;8.00;3.85;;;19.00;99.90;;;;;;5137027;27;20035;-62
2023/10/11 12:12:52;;;;;;;7.45;3.58;;;19.00;99.90;;;;;;5099703;27;20051;-63
2023/10/11 12:15:19;;;;;;;8.07;3.70;;;19.10;99.90;;;;;;5136822;27;20057;-63
2023/10/11 12:17:47;;;;;;;7.90;3.50;;;19.10;99.90;;;;;;5118726;27;20486;-63
2023/10/11 12:20:14;;;;;;;8.98;3.28;;;19.10;99.90;;;;;;5137131;27;20062;-62
2023/10/11 12:22:42;;;;;;;9.25;3.75;;;19.20;99.90;;;;;;5118691;27;20557;-62
2023/10/11 12:25:09;;;;;;;7.30;3.03;;;19.20;99.90;;;;;;5117238;27;20035;-62
2023/10/11 12:27:40;;;;;;;8.95;3.10;;;19.30;99.90;;;;;;5136377;27;20083;-63
2023/10/11 12:30:19;;;;;;;8.02;3.50;;;19.30;99.90;;;;;;5115470;27;20127;-63
2023/10/11 12:32:49;;;;;;;7.68;3.00;;;19.30;99.90;;;;;;5133484;27;20039;-63
2023/10/11 12:35:15;;;;;;;6.82;3.20;;;19.40;99.90;;;;;;5114533;27;20122;-62
2023/10/11 12:37:41;;;;;;;9.15;3.47;;;19.40;99.90;;;;;;5114131;27;20075;-63
2023/10/11 12:40:13;;;;;;;5.55;3.17;;;19.40;99.90;;;;;;5115149;27;20425;-61
2023/10/11 12:42:42;;;;;;;7.60;3.13;;;19.50;99.90;;;;;;5133531;27;20065;-62
2023/10/11 12:45:08;;;;;;;7.57;2.90;;;19.50;99.90;;;;;;5097855;27;20050;-64
2023/10/11 12:47:34;;;;;;;8.23;3.30;;;19.60;99.90;;;;;;5114474;27;20050;-63
2023/10/11 12:50:03;;;;;;;5.63;2.65;;;19.60;99.90;;;;;;5133365;27;20088;-63
2023/10/11 12:52:30;;;;;;;8.07;2.70;;;19.60;99.90;;;;;;5114910;27;20144;-62
2023/10/11 12:54:57;;;;;;;5.45;2.85;;;19.70;99.90;;;;;;5114802;27;20053;-62
2023/10/11 12:57:23;;;;;;;8.20;2.97;;;19.70;99.90;;;;;;5113455;27;20069;-62
2023/10/11 12:59:49;;;;;;;7.53;2.70;;;19.60;99.90;;;;;;5114627;27;20034;-62
2023/10/11 13:02:21;;;;;;;5.38;2.67;;;19.60;99.90;;;;;;5133344;27;20031;-63
2023/10/11 13:04:47;;;;;;;7.10;2.40;;;19.60;99.90;;;;;;5133428;27;20042;-63
2023/10/11 13:07:16;;;;;;;7.15;2.58;;;19.50;99.90;;;;;;5131027;27;20027;-62
2023/10/11 13:09:41;;;;;;;6.30;2.60;;;19.50;99.90;;;;;;5109174;27;20045;-63
2023/10/11 13:12:08;;;;;;;8.18;2.60;;;19.40;99.90;;;;;;5112368;27;20713;-62
2023/10/11 13:14:35;;;;;;;4.80;2.47;;;19.30;99.90;;;;;;5114401;27;20047;-62
2023/10/11 13:17:05;;;;;;;5.88;2.50;;;19.30;99.90;;;;;;5132391;27;20049;-63
2023/10/11 13:19:31;;;;;;;9.85;2.45;;;19.30;99.90;;;;;;5133163;27;20127;-62
2023/10/11 13:21:57;;;;;;;5.13;2.58;;;19.30;99.90;;;;;;5133226;27;20374;-63
2023/10/11 13:24:25;;;;;;;5.88;2.38;;;19.30;99.90;;;;;;5133234;27;20153;-63
2023/10/11 13:26:57;;;;;;;8.95;2.60;;;19.30;99.90;;;;;;5114908;27;20062;-63
2023/10/11 13:29:24;;;;;;;5.72;2.85;;;19.30;99.90;;;;;;5114406;27;20062;-63